Time;durP1;ratioP1;P1;durP2;ratioP2;P2;SDS_P1;SDS_P2;PMS_P1;PMS_P2;Temp;Humidity;BMP_temperature;BMP_pressure;BME280_temperature;BME280_humidity;BME280_pressure;Samples;Min_cycle;Max_cycle;Signal;HPM_P1;HPM_P2
2022/04/23 00:01:17;;;;;;;17.40;10.63;;;10.60;99.90;;;;;;5012669;28;20046;-85
2022/04/23 00:03:43;;;;;;;17.55;10.70;;;10.50;99.90;;;;;;4994391;28;20409;-86
2022/04/23 00:06:09;;;;;;;19.88;11.02;;;10.40;99.90;;;;;;5011805;28;20091;-85
2022/04/23 00:08:34;;;;;;;20.55;11.43;;;10.40;99.90;;;;;;5013021;28;20057;-85
2022/04/23 00:11:00;;;;;;;19.27;11.02;;;10.30;99.90;;;;;;4994307;28;20097;-85
2022/04/23 00:13:26;;;;;;;17.23;10.52;;;10.30;99.90;;;;;;5011939;28;20125;-85
2022/04/23 00:15:52;;;;;;;19.48;11.18;;;10.30;99.90;;;;;;5012366;28;20030;-85
2022/04/23 00:18:18;;;;;;;17.45;10.77;;;10.20;99.90;;;;;;4994608;28;20048;-85
2022/04/23 00:20:46;;;;;;;17.40;10.93;;;10.20;99.90;;;;;;5012501;28;20047;-85
2022/04/23 00:23:12;;;;;;;19.23;11.13;;;10.10;99.90;;;;;;5015996;28;20077;-85
2022/04/23 00:25:39;;;;;;;18.92;11.75;;;10.10;99.90;;;;;;5015793;28;20050;-85
2022/04/23 00:28:05;;;;;;;17.55;11.38;;;10.00;99.90;;;;;;5015317;28;20034;-85
2022/04/23 00:30:31;;;;;;;18.42;11.57;;;10.00;99.90;;;;;;5016066;28;20136;-85
2022/04/23 00:33:00;;;;;;;18.58;12.38;;;9.90;99.90;;;;;;5015668;28;20432;-86
2022/04/23 00:35:26;;;;;;;18.50;11.75;;;9.90;99.90;;;;;;5015154;28;20393;-85
2022/04/23 00:37:52;;;;;;;19.10;12.00;;;10.00;99.90;;;;;;4997809;28;20054;-85
2022/04/23 00:40:18;;;;;;;17.67;11.90;;;10.00;99.90;;;;;;4997900;28;20407;-86
2022/04/23 00:42:48;;;;;;;22.27;12.10;;;10.00;99.90;;;;;;5014278;28;20043;-85
2022/04/23 00:45:14;;;;;;;19.45;12.07;;;10.00;99.90;;;;;;5015334;28;20081;-86
2022/04/23 00:47:40;;;;;;;18.38;12.10;;;10.00;99.90;;;;;;4997428;28;20046;-85
2022/04/23 00:50:06;;;;;;;18.92;12.10;;;10.00;99.90;;;;;;4997091;28;20046;-85
2022/04/23 00:52:32;;;;;;;19.60;12.00;;;10.00;99.90;;;;;;4997794;28;20042;-85
2022/04/23 00:54:59;;;;;;;20.25;12.77;;;10.00;99.90;;;;;;5014479;28;20629;-85
2022/04/23 00:57:25;;;;;;;19.05;12.20;;;10.10;99.90;;;;;;5015180;28;20498;-86
2022/04/23 00:59:52;;;;;;;19.60;12.43;;;10.00;99.90;;;;;;5015123;28;20046;-85
2022/04/23 01:02:17;;;;;;;19.05;12.18;;;10.10;99.90;;;;;;5014557;28;20053;-86
2022/04/23 01:04:44;;;;;;;17.17;12.07;;;10.00;99.90;;;;;;4997410;28;20046;-85
2022/04/23 01:07:12;;;;;;;19.65;12.93;;;10.00;99.90;;;;;;5014933;28;20501;-86
2022/04/23 01:09:39;;;;;;;18.60;12.02;;;10.00;99.90;;;;;;5014425;28;20076;-85
2022/04/23 01:12:05;;;;;;;19.90;12.20;;;9.90;99.90;;;;;;5015433;28;20038;-85
2022/04/23 01:14:31;;;;;;;20.25;12.38;;;9.90;99.90;;;;;;5014660;28;20048;-85
2022/04/23 01:16:57;;;;;;;18.85;12.63;;;9.80;99.90;;;;;;4996376;28;20046;-85
2022/04/23 01:19:23;;;;;;;18.83;12.07;;;9.70;99.90;;;;;;4997295;28;20050;-86
2022/04/23 01:21:48;;;;;;;19.60;12.18;;;9.70;99.90;;;;;;4996807;28;20053;-86
2022/04/23 01:24:15;;;;;;;18.58;12.25;;;9.70;99.90;;;;;;5014123;28;20046;-86
2022/04/23 01:26:41;;;;;;;19.08;12.50;;;9.60;99.90;;;;;;5014595;28;20104;-86
2022/04/23 01:29:06;;;;;;;20.17;11.80;;;9.60;99.90;;;;;;4997424;28;20489;-86
2022/04/23 01:31:32;;;;;;;19.20;12.00;;;9.50;99.90;;;;;;4996634;28;20069;-85
2022/04/23 01:33:59;;;;;;;19.27;12.82;;;9.50;99.90;;;;;;5014611;28;20124;-86
2022/04/23 01:36:24;;;;;;;19.95;13.20;;;9.50;99.90;;;;;;5000847;28;20096;-85
2022/04/23 01:38:50;;;;;;;19.45;12.45;;;9.50;99.90;;;;;;5016267;28;20033;-85
2022/04/23 01:41:16;;;;;;;19.15;12.75;;;9.40;99.90;;;;;;5015060;28;20452;-86
2022/04/23 01:43:42;;;;;;;19.92;12.93;;;9.40;99.90;;;;;;5014148;28;20038;-85
2022/04/23 01:46:08;;;;;;;19.02;12.15;;;9.40;99.90;;;;;;5013724;28;20425;-85
2022/04/23 01:48:33;;;;;;;20.65;12.90;;;9.40;99.90;;;;;;5014605;28;20037;-85
2022/04/23 01:51:00;;;;;;;18.88;12.65;;;9.40;99.90;;;;;;5014102;28;20128;-85
2022/04/23 01:53:25;;;;;;;19.08;11.80;;;9.40;99.90;;;;;;4996076;28;20069;-86
2022/04/23 01:55:55;;;;;;;19.00;12.80;;;9.40;99.90;;;;;;4996444;28;20494;-86
2022/04/23 01:58:21;;;;;;;20.52;12.60;;;9.40;99.90;;;;;;5014130;28;20042;-86
2022/04/23 02:00:48;;;;;;;19.48;12.40;;;9.30;99.90;;;;;;5019697;28;20120;-86
2022/04/23 02:03:13;;;;;;;19.10;12.43;;;9.30;99.90;;;;;;5032324;28;20485;-85
2022/04/23 02:05:39;;;;;;;19.13;12.93;;;9.30;99.90;;;;;;5014446;28;20057;-86
2022/04/23 02:08:05;;;;;;;19.30;12.05;;;9.30;99.90;;;;;;5033247;28;20041;-85
2022/04/23 02:10:31;;;;;;;19.40;12.07;;;9.30;99.90;;;;;;5032595;28;20140;-85
2022/04/23 02:12:57;;;;;;;22.88;12.02;;;9.30;99.90;;;;;;5032718;28;20128;-86
2022/04/23 02:15:23;;;;;;;18.10;11.77;;;9.20;99.90;;;;;;5033834;28;20041;-85
2022/04/23 02:17:49;;;;;;;19.15;11.65;;;9.20;99.90;;;;;;5033166;28;20149;-85
2022/04/23 02:20:16;;;;;;;19.95;11.93;;;9.20;99.90;;;;;;5032411;28;20504;-85
2022/04/23 02:22:42;;;;;;;18.13;11.63;;;9.20;99.90;;;;;;5032865;28;20091;-85
2022/04/23 02:25:08;;;;;;;18.70;11.45;;;9.10;99.90;;;;;;5015763;28;20413;-85
2022/04/23 02:27:45;;;;;;;18.38;11.13;;;9.20;99.90;;;;;;5032591;28;20084;-86
2022/04/23 02:30:13;;;;;;;18.50;11.82;;;9.10;99.90;;;;;;5033575;28;20049;-85
2022/04/23 02:32:39;;;;;;;19.02;11.88;;;9.10;99.90;;;;;;5015292;28;20125;-85
2022/04/23 02:35:05;;;;;;;17.48;11.10;;;9.10;99.90;;;;;;5014633;28;20043;-86
2022/04/23 02:37:34;;;;;;;17.15;11.18;;;9.10;99.90;;;;;;5033304;28;20045;-85
2022/04/23 02:40:04;;;;;;;17.27;10.77;;;9.10;99.90;;;;;;5032825;28;20099;-85
2022/04/23 02:42:30;;;;;;;17.13;11.15;;;9.10;99.90;;;;;;5014716;28;20049;-85
2022/04/23 02:45:00;;;;;;;17.23;11.43;;;9.00;99.90;;;;;;5032027;28;20046;-85
2022/04/23 02:47:29;;;;;;;16.63;10.70;;;9.00;99.90;;;;;;5014699;28;20037;-85
2022/04/23 02:49:55;;;;;;;19.13;10.63;;;9.00;99.90;;;;;;5032962;28;20100;-86
2022/04/23 02:52:21;;;;;;;17.92;10.93;;;9.00;99.90;;;;;;5015451;28;20466;-85
2022/04/23 02:54:46;;;;;;;15.85;10.55;;;9.00;99.90;;;;;;5032268;28;20120;-85
2022/04/23 02:57:12;;;;;;;17.65;10.10;;;8.90;99.90;;;;;;5032953;28;20056;-85
2022/04/23 02:59:39;;;;;;;18.35;10.63;;;8.90;99.90;;;;;;5033025;28;20038;-85
2022/04/23 03:02:05;;;;;;;16.55;10.10;;;8.90;99.90;;;;;;5032220;28;20042;-85
2022/04/23 03:04:31;;;;;;;17.55;10.68;;;8.90;99.90;;;;;;5032849;28;20079;-85
2022/04/23 03:06:56;;;;;;;19.38;10.48;;;8.80;99.90;;;;;;5032605;28;20045;-85
2022/04/23 03:09:22;;;;;;;18.48;11.35;;;8.80;99.90;;;;;;5014077;28;20477;-85
2022/04/23 03:11:48;;;;;;;16.48;10.45;;;8.80;99.90;;;;;;5032615;28;20378;-85
2022/04/23 03:14:13;;;;;;;16.20;10.15;;;8.80;99.90;;;;;;5015845;28;20051;-85
2022/04/23 03:16:39;;;;;;;17.65;10.35;;;8.80;99.90;;;;;;5032087;28;20584;-85
2022/04/23 03:19:04;;;;;;;18.33;10.07;;;8.80;99.90;;;;;;5015475;28;20046;-85
2022/04/23 03:21:30;;;;;;;18.05;10.20;;;8.70;99.90;;;;;;5033018;28;20049;-85
2022/04/23 03:23:55;;;;;;;18.17;10.85;;;8.70;99.90;;;;;;5031689;28;20041;-85
2022/04/23 03:26:21;;;;;;;20.60;10.65;;;8.70;99.90;;;;;;5015192;28;20052;-85
2022/04/23 03:28:46;;;;;;;17.05;9.90;;;8.60;99.90;;;;;;5014827;28;20404;-85
2022/04/23 03:31:12;;;;;;;18.40;10.68;;;8.60;99.90;;;;;;5031808;28;20446;-85
2022/04/23 03:33:38;;;;;;;17.20;10.02;;;8.60;99.90;;;;;;5032772;28;20496;-85
2022/04/23 03:36:05;;;;;;;16.58;9.57;;;8.60;99.90;;;;;;5032642;28;20049;-86
2022/04/23 03:38:31;;;;;;;16.48;10.07;;;8.60;99.90;;;;;;5014353;28;20551;-86
2022/04/23 03:40:56;;;;;;;15.88;9.63;;;8.60;99.90;;;;;;5032726;28;20042;-85
2022/04/23 03:43:24;;;;;;;14.73;9.52;;;8.50;99.90;;;;;;5014964;28;20099;-85
2022/04/23 03:45:50;;;;;;;17.00;10.05;;;8.60;99.90;;;;;;5031359;28;20053;-85
2022/04/23 03:48:15;;;;;;;18.30;10.48;;;8.60;99.90;;;;;;5016097;28;20092;-85
2022/04/23 03:50:41;;;;;;;15.95;9.50;;;8.60;99.90;;;;;;5031460;28;20083;-85
2022/04/23 03:53:08;;;;;;;15.98;9.57;;;8.50;99.90;;;;;;5032544;28;20125;-85
2022/04/23 03:55:34;;;;;;;15.98;9.82;;;8.50;99.90;;;;;;5015434;28;20045;-85
2022/04/23 03:58:01;;;;;;;17.70;9.13;;;8.50;99.90;;;;;;5017210;28;20064;-85
2022/04/23 04:00:28;;;;;;;17.20;9.55;;;8.40;99.90;;;;;;5035490;28;20405;-85
2022/04/23 04:02:54;;;;;;;17.17;9.23;;;8.40;99.90;;;;;;5033108;28;20037;-85
2022/04/23 04:05:20;;;;;;;15.50;9.48;;;8.40;99.90;;;;;;5014949;28;20061;-85
2022/04/23 04:07:47;;;;;;;14.68;8.82;;;8.40;99.90;;;;;;4998028;28;20175;-85
2022/04/23 04:10:16;;;;;;;16.45;9.38;;;8.40;99.90;;;;;;5016064;28;20057;-85
2022/04/23 04:12:42;;;;;;;15.38;10.02;;;8.30;99.90;;;;;;5015330;28;20065;-85
2022/04/23 04:15:10;;;;;;;15.60;8.77;;;8.30;99.90;;;;;;4998412;28;20046;-85
2022/04/23 04:17:37;;;;;;;16.33;9.07;;;8.30;99.90;;;;;;4998640;28;20081;-85
2022/04/23 04:20:07;;;;;;;15.25;8.98;;;8.30;99.90;;;;;;5015205;28;20370;-85
2022/04/23 04:22:33;;;;;;;14.35;8.80;;;8.20;99.90;;;;;;5016464;28;20045;-85
2022/04/23 04:25:00;;;;;;;13.30;7.93;;;8.20;99.90;;;;;;4998058;28;20046;-85
2022/04/23 04:27:26;;;;;;;13.43;8.00;;;8.20;99.90;;;;;;5015383;28;20117;-85
2022/04/23 04:29:51;;;;;;;13.90;8.52;;;8.10;99.90;;;;;;5015943;28;20429;-85
2022/04/23 04:32:17;;;;;;;13.63;8.30;;;8.10;99.90;;;;;;5015862;28;20060;-85
2022/04/23 04:34:42;;;;;;;13.85;8.18;;;8.10;99.90;;;;;;5014737;28;20088;-85
2022/04/23 04:37:09;;;;;;;14.55;8.25;;;8.10;99.90;;;;;;4998288;28;20050;-85
2022/04/23 04:39:36;;;;;;;15.20;8.20;;;8.10;99.90;;;;;;5017101;28;20050;-85
2022/04/23 04:42:03;;;;;;;13.68;7.80;;;8.10;99.90;;;;;;5017514;28;20053;-85
2022/04/23 04:44:29;;;;;;;14.93;8.27;;;8.10;99.90;;;;;;5016267;28;20084;-85
2022/04/23 04:46:54;;;;;;;13.70;7.82;;;8.10;99.90;;;;;;5014850;28;20061;-85
2022/04/23 04:49:22;;;;;;;14.32;8.15;;;8.10;99.90;;;;;;5015491;28;20050;-85
2022/04/23 04:51:48;;;;;;;13.73;7.90;;;8.00;99.90;;;;;;4997776;28;20099;-85
2022/04/23 04:54:14;;;;;;;13.30;8.20;;;8.10;99.90;;;;;;5014395;28;20038;-85
2022/04/23 04:56:39;;;;;;;13.20;7.70;;;8.10;99.90;;;;;;5015011;28;20049;-84
2022/04/23 04:59:05;;;;;;;15.68;8.00;;;8.10;99.90;;;;;;5015322;28;20041;-85
2022/04/23 05:01:31;;;;;;;14.15;8.30;;;8.10;99.90;;;;;;5014598;28;20057;-84
2022/04/23 05:03:57;;;;;;;14.00;7.75;;;8.10;99.90;;;;;;4997509;28;20038;-85
2022/04/23 05:06:23;;;;;;;13.57;7.72;;;8.10;99.90;;;;;;4997913;28;20050;-85
2022/04/23 05:08:48;;;;;;;13.73;7.43;;;8.20;99.90;;;;;;4995372;28;20042;-85
2022/04/23 05:11:14;;;;;;;13.48;7.50;;;8.20;99.90;;;;;;4997113;28;20053;-85
2022/04/23 05:13:39;;;;;;;12.75;7.57;;;8.30;99.90;;;;;;4997167;28;20485;-85
2022/04/23 05:16:06;;;;;;;13.98;8.07;;;8.30;99.90;;;;;;5014438;28;20063;-85
2022/04/23 05:18:32;;;;;;;13.13;7.15;;;8.30;99.90;;;;;;5015134;28;20050;-85
2022/04/23 05:20:58;;;;;;;14.98;7.80;;;8.30;99.90;;;;;;4996821;28;20092;-85
2022/04/23 05:23:23;;;;;;;12.80;7.85;;;8.40;99.90;;;;;;5014078;28;20346;-85
2022/04/23 05:25:49;;;;;;;13.30;7.65;;;8.40;99.90;;;;;;4996675;28;20049;-85
2022/04/23 05:28:14;;;;;;;14.40;7.97;;;8.40;99.90;;;;;;4997370;28;20082;-85
2022/04/23 05:30:40;;;;;;;13.10;7.50;;;8.50;99.90;;;;;;4996992;28;20042;-85
2022/04/23 05:33:06;;;;;;;13.88;8.25;;;8.60;99.90;;;;;;5014817;28;20038;-85
2022/04/23 05:35:33;;;;;;;16.50;8.45;;;8.60;99.90;;;;;;5014472;28;20386;-85
2022/04/23 05:37:58;;;;;;;14.40;8.07;;;8.70;99.90;;;;;;5013704;28;20486;-85
2022/04/23 05:40:24;;;;;;;12.85;8.02;;;8.70;99.90;;;;;;5014659;28;20041;-85
2022/04/23 05:42:50;;;;;;;13.93;8.10;;;8.70;99.90;;;;;;5014160;28;20180;-85
2022/04/23 05:45:15;;;;;;;14.43;8.07;;;8.70;99.90;;;;;;4996509;28;20081;-85
2022/04/23 05:47:41;;;;;;;13.98;8.30;;;8.80;99.90;;;;;;5014388;28;20113;-85
2022/04/23 05:50:08;;;;;;;13.82;8.32;;;8.80;99.90;;;;;;4996856;28;20164;-85
2022/04/23 05:52:35;;;;;;;14.60;8.38;;;8.90;99.90;;;;;;4996107;28;20057;-85
2022/04/23 05:55:01;;;;;;;14.45;8.60;;;8.90;99.90;;;;;;5013687;28;20128;-85
2022/04/23 05:57:26;;;;;;;15.30;8.00;;;9.00;99.90;;;;;;4996001;28;20189;-85
2022/04/23 05:59:52;;;;;;;13.80;8.20;;;9.10;99.90;;;;;;5013603;28;20378;-85
2022/04/23 06:02:17;;;;;;;15.82;9.18;;;9.10;99.90;;;;;;5014083;28;20104;-85
2022/04/23 06:04:45;;;;;;;14.75;8.93;;;9.20;99.90;;;;;;4995570;28;20049;-85
2022/04/23 06:07:11;;;;;;;13.55;8.15;;;9.20;99.90;;;;;;5014254;28;20048;-85
2022/04/23 06:09:36;;;;;;;15.10;9.57;;;9.30;99.90;;;;;;4995754;28;20501;-85
2022/04/23 06:12:02;;;;;;;14.27;8.48;;;9.30;99.90;;;;;;5013182;28;20038;-86
2022/04/23 06:14:28;;;;;;;13.70;8.40;;;9.40;99.90;;;;;;4996372;28;20456;-85
2022/04/23 06:16:53;;;;;;;14.50;9.00;;;9.40;99.90;;;;;;5013998;28;20052;-89
2022/04/23 06:19:19;;;;;;;15.88;8.50;;;9.50;99.90;;;;;;4995672;28;20045;-87
2022/04/23 06:21:44;;;;;;;14.27;8.98;;;9.60;99.90;;;;;;5013899;28;20041;-88
2022/04/23 06:24:10;;;;;;;14.30;9.00;;;9.60;99.90;;;;;;4997054;28;20528;-88
2022/04/23 06:26:36;;;;;;;17.80;9.60;;;9.60;99.90;;;;;;4996833;28;20397;-87
2022/04/23 06:29:04;;;;;;;14.68;9.15;;;9.70;99.90;;;;;;4995632;28;20046;-87
2022/04/23 06:31:33;;;;;;;16.33;9.55;;;9.70;99.90;;;;;;5013998;28;20049;-87
2022/04/23 06:33:59;;;;;;;15.05;9.70;;;9.80;99.90;;;;;;4995068;28;20050;-87
2022/04/23 06:36:28;;;;;;;15.52;9.88;;;9.70;99.90;;;;;;4996264;28;20056;-87
2022/04/23 06:38:53;;;;;;;14.45;9.10;;;10.10;99.90;;;;;;4995913;28;20064;-88
2022/04/23 06:41:32;;;;;;;16.52;9.38;;;9.80;99.90;;;;;;5013321;28;20484;-89
2022/04/23 06:44:18;;;;;;;17.02;9.75;;;10.00;99.90;;;;;;4996090;28;20057;-90
2022/04/23 06:47:01;;;;;;;17.38;9.63;;;10.00;99.90;;;;;;5004102;28;20135;-88
2022/04/23 06:49:39;;;;;;;15.02;9.30;;;10.10;99.90;;;;;;4995851;28;20099;-88
2022/04/23 06:52:07;;;;;;;17.05;9.95;;;10.20;99.90;;;;;;5013566;28;20053;-87
2022/04/23 06:54:32;;;;;;;14.60;9.40;;;10.20;99.90;;;;;;5012801;28;20038;-86
2022/04/23 06:57:04;;;;;;;15.70;9.77;;;10.40;99.90;;;;;;5013216;28;20788;-86
2022/04/23 06:59:39;;;;;;;17.10;10.15;;;11.10;99.90;;;;;;4995379;28;20046;-87
2022/04/23 07:02:13;;;;;;;17.20;9.55;;;10.60;99.90;;;;;;5012567;28;20057;-86
2022/04/23 07:04:39;;;;;;;15.18;9.82;;;10.90;99.90;;;;;;4987617;28;20176;-87
2022/04/23 07:07:05;;;;;;;15.85;10.27;;;10.80;99.90;;;;;;4996106;28;20081;-88
2022/04/23 07:09:38;;;;;;;15.00;10.30;;;11.30;99.90;;;;;;4994731;28;20058;-88
2022/04/23 07:12:05;;;;;;;16.63;9.60;;;11.70;99.90;;;;;;5002833;28;20045;-89
2022/04/23 07:14:43;;;;;;;15.48;9.60;;;11.20;99.90;;;;;;5021778;28;20108;-90
2022/04/23 07:17:10;;;;;;;16.60;9.82;;;11.40;99.90;;;;;;5024187;28;20448;-89
2022/04/23 07:19:42;;;;;;;16.13;10.00;;;11.40;99.90;;;;;;5003257;28;20099;-91
2022/04/23 07:22:08;;;;;;;15.23;9.70;;;11.30;99.90;;;;;;5005198;28;20042;-90
2022/04/23 07:24:34;;;;;;;17.25;10.55;;;11.50;99.90;;;;;;5008134;28;20038;-90
2022/04/23 07:27:18;;;;;;;15.88;9.32;;;11.70;99.90;;;;;;5022329;28;20125;-89
2022/04/23 07:29:44;;;;;;;15.35;9.27;;;12.50;99.90;;;;;;5012381;28;20061;-92
2022/04/23 07:32:10;;;;;;;17.08;9.65;;;12.10;99.90;;;;;;5016692;28;20049;-90
2022/04/23 07:37:33;;;;;;;15.88;9.10;;;12.20;99.90;;;;;;4999182;28;20046;-89
2022/04/23 07:40:10;;;;;;;15.45;8.77;;;12.70;99.90;;;;;;4999203;28;20412;-89
2022/04/23 07:42:41;;;;;;;16.15;8.90;;;12.40;99.90;;;;;;4999603;28;20049;-90
2022/04/23 07:45:19;;;;;;;18.95;8.88;;;12.30;99.90;;;;;;5016378;28;20052;-90
2022/04/23 07:47:56;;;;;;;15.50;8.77;;;12.60;99.90;;;;;;5020409;28;20038;-90
2022/04/23 07:50:22;;;;;;;13.48;8.10;;;13.30;99.90;;;;;;5021254;28;20042;-90
2022/04/23 07:52:51;;;;;;;14.38;8.18;;;12.70;99.90;;;;;;5016148;28;20467;-90
2022/04/23 07:55:25;;;;;;;13.75;8.25;;;12.60;99.90;;;;;;5009606;28;20481;-89
2022/04/23 07:58:09;;;;;;;20.42;8.73;;;12.80;99.90;;;;;;5017868;28;20049;-89
2022/04/23 08:00:35;;;;;;;13.57;8.07;;;12.10;99.90;;;;;;5036141;28;20045;-90
2022/04/23 08:03:05;;;;;;;14.07;8.13;;;13.80;99.90;;;;;;5036109;28;20049;-89
2022/04/23 08:05:33;;;;;;;15.27;8.60;;;13.90;99.90;;;;;;5035189;28;20053;-90
2022/04/23 08:08:08;;;;;;;15.02;8.60;;;13.00;99.90;;;;;;5017655;28;20045;-89
2022/04/23 08:11:00;;;;;;;16.00;8.70;;;13.20;99.90;;;;;;5017717;28;20060;-89
2022/04/23 08:13:25;;;;;;;13.95;9.00;;;13.30;99.90;;;;;;5017862;28;20049;-90
2022/04/23 08:15:51;;;;;;;15.45;9.63;;;13.10;99.90;;;;;;5035731;28;20481;-90
2022/04/23 08:18:18;;;;;;;16.40;8.75;;;12.90;99.90;;;;;;5035201;28;20497;-90
2022/04/23 08:21:02;;;;;;;17.23;8.65;;;13.80;99.90;;;;;;5017577;28;20037;-89
2022/04/23 08:23:39;;;;;;;13.10;8.45;;;13.00;99.90;;;;;;5035885;28;20052;-90
2022/04/23 08:26:05;;;;;;;14.75;8.85;;;13.50;99.90;;;;;;5035571;28;20132;-90
2022/04/23 08:31:16;;;;;;;15.43;8.98;;;13.30;99.90;;;;;;5038898;28;20084;-91
2022/04/23 08:36:38;;;;;;;14.45;9.30;;;14.20;99.90;;;;;;5004605;28;20387;-91
2022/04/23 08:39:06;;;;;;;19.10;9.63;;;14.00;99.90;;;;;;5017266;28;20049;-90
2022/04/23 08:41:35;;;;;;;14.75;9.38;;;14.00;99.90;;;;;;5035282;28;20448;-89
2022/04/23 08:44:05;;;;;;;17.02;8.88;;;14.70;99.90;;;;;;5035474;28;20096;-90
2022/04/23 08:46:44;;;;;;;15.80;9.23;;;14.10;99.90;;;;;;5033569;28;20080;-89
2022/04/23 08:49:13;;;;;;;14.27;8.95;;;13.20;99.90;;;;;;5017669;28;20046;-91
2022/04/23 08:51:40;;;;;;;15.07;9.27;;;14.80;99.90;;;;;;5034725;28;20038;-89
2022/04/23 08:54:13;;;;;;;13.65;9.48;;;14.10;99.90;;;;;;5033922;28;20392;-89
2022/04/23 08:56:40;;;;;;;;;;;14.30;99.90;;;;;;5035273;28;20068;-89
2022/04/23 08:59:12;;;;;;;14.65;9.13;;;14.00;99.90;;;;;;5017778;28;20019;-90
2022/04/23 09:01:49;;;;;;;14.43;9.23;;;14.80;99.90;;;;;;5034460;28;20124;-90
2022/04/23 09:04:15;;;;;;;13.30;9.45;;;14.60;99.90;;;;;;5017108;28;20095;-88
2022/04/23 09:06:47;;;;;;;15.05;9.38;;;14.40;99.90;;;;;;5034744;28;20041;-86
2022/04/23 09:09:17;;;;;;;15.00;10.13;;;15.00;99.90;;;;;;5005954;28;20050;-86
2022/04/23 09:12:01;;;;;;;16.83;9.73;;;14.70;99.90;;;;;;5014569;28;20058;-87
2022/04/23 09:14:32;;;;;;;16.52;10.18;;;14.80;99.90;;;;;;4996767;28;20070;-87
2022/04/23 09:25:46;;;;;;;15.48;9.45;;;15.40;99.90;;;;;;5014249;28;20069;-89
2022/04/23 09:28:22;;;;;;;14.57;9.27;;;15.40;99.90;;;;;;5018410;28;20045;-89
2022/04/23 09:30:50;;;;;;;14.77;9.68;;;15.70;99.90;;;;;;5015277;28;20053;-90
2022/04/23 09:33:16;;;;;;;13.55;9.63;;;15.50;99.90;;;;;;5050821;23;20059;-89
2022/04/23 09:36:02;;;;;;;13.23;9.40;;;16.70;99.90;;;;;;5056459;28;20076;-89
2022/04/23 09:38:29;;;;;;;13.38;9.30;;;16.00;99.90;;;;;;5055797;28;20053;-88
2022/04/23 09:41:15;;;;;;;14.38;9.18;;;16.00;99.90;;;;;;5052026;28;20036;-88
2022/04/23 09:43:42;;;;;;;13.90;9.10;;;16.90;99.90;;;;;;5020953;28;20042;-88
2022/04/23 09:46:09;;;;;;;14.23;10.07;;;16.10;99.90;;;;;;5033869;28;20508;-88
2022/04/23 09:48:38;;;;;;;14.23;9.48;;;16.00;99.90;;;;;;5016598;28;20053;-87
2022/04/23 09:51:05;;;;;;;16.52;9.73;;;16.00;99.90;;;;;;5033453;28;20085;-87
2022/04/23 09:53:33;;;;;;;14.10;9.55;;;16.10;99.90;;;;;;5016224;28;20393;-88
2022/04/23 09:55:59;;;;;;;15.63;8.65;;;16.20;99.90;;;;;;5015472;28;20056;-88
2022/04/23 09:58:29;;;;;;;17.15;9.80;;;17.00;99.90;;;;;;5015623;28;20045;-88
2022/04/23 10:00:56;;;;;;;14.45;9.57;;;16.40;99.00;;;;;;5034092;28;20048;-87
2022/04/23 10:03:32;;;;;;;16.35;9.75;;;16.90;99.50;;;;;;5034226;28;20060;-85
2022/04/23 10:05:59;;;;;;;16.73;9.82;;;16.40;97.90;;;;;;5022071;28;20045;-91
2022/04/23 10:08:31;;;;;;;13.90;9.13;;;16.50;98.90;;;;;;5053418;28;20507;-90
2022/04/23 10:11:19;;;;;;;13.55;8.93;;;17.10;97.60;;;;;;5035595;28;20099;-90
2022/04/23 10:13:48;;;;;;;14.70;9.07;;;16.50;98.00;;;;;;5035507;28;20053;-88
2022/04/23 10:16:14;;;;;;;13.65;9.13;;;16.60;97.70;;;;;;5035749;28;20436;-88
2022/04/23 10:18:40;;;;;;;15.40;9.13;;;17.00;97.80;;;;;;5052595;28;20485;-88
2022/04/23 10:21:08;;;;;;;14.10;9.45;;;16.80;97.50;;;;;;5053661;28;20052;-88
2022/04/23 10:23:59;;;;;;;13.88;8.70;;;16.90;97.00;;;;;;5053372;28;20045;-88
2022/04/23 10:26:51;;;;;;;14.05;8.90;;;17.00;95.50;;;;;;5034866;28;20102;-90
2022/04/23 10:29:23;;;;;;;14.50;9.25;;;17.10;95.70;;;;;;5035625;28;20040;-88
2022/04/23 10:32:10;;;;;;;18.48;9.73;;;17.10;95.00;;;;;;5034403;28;20049;-89
2022/04/23 10:34:37;;;;;;;17.98;9.40;;;17.10;94.60;;;;;;5035583;28;20049;-88
2022/04/23 10:37:22;;;;;;;15.82;9.07;;;17.20;95.50;;;;;;5052834;28;20044;-88
2022/04/23 10:39:51;;;;;;;14.20;8.90;;;17.30;94.00;;;;;;5034944;28;20041;-89
2022/04/23 10:42:17;;;;;;;13.55;8.20;;;17.60;95.20;;;;;;5038064;28;20037;-88
2022/04/23 10:44:44;;;;;;;14.43;8.35;;;17.60;94.50;;;;;;5034882;28;20124;-89
2022/04/23 10:47:12;;;;;;;15.93;8.82;;;17.90;94.30;;;;;;5052544;28;20052;-89
2022/04/23 10:49:37;;;;;;;12.80;8.13;;;17.90;94.00;;;;;;5035512;28;20507;-90
2022/04/23 10:52:03;;;;;;;13.20;8.60;;;18.00;93.80;;;;;;5052964;28;20040;-89
2022/04/23 10:54:42;;;;;;;13.00;8.35;;;18.00;93.10;;;;;;5051932;28;20354;-89
2022/04/23 10:57:15;;;;;;;12.73;8.50;;;18.10;92.40;;;;;;5052718;28;20056;-89
2022/04/23 10:59:45;;;;;;;13.80;8.60;;;18.20;92.70;;;;;;5034783;28;20053;-89
2022/04/23 11:02:19;;;;;;;14.68;8.30;;;18.20;92.40;;;;;;5062541;28;20044;-88
2022/04/23 11:13:56;;;;;;;12.10;8.18;;;18.20;91.20;;;;;;5034051;28;20057;-90
2022/04/23 11:16:29;;;;;;;13.77;8.93;;;18.30;91.60;;;;;;5037679;28;20048;-89
2022/04/23 11:19:02;;;;;;;17.42;9.45;;;18.30;91.20;;;;;;5035188;28;20041;-90
2022/04/23 11:21:28;;;;;;;13.73;8.33;;;18.40;90.50;;;;;;5052047;28;20063;-89
2022/04/23 11:23:56;;;;;;;12.90;9.18;;;18.40;90.40;;;;;;5034429;28;20041;-88
2022/04/23 11:26:41;;;;;;;15.80;8.82;;;18.40;90.60;;;;;;5036817;28;20045;-88
2022/04/23 11:29:07;;;;;;;12.93;8.20;;;18.40;89.00;;;;;;5034157;28;20099;-89
2022/04/23 11:31:33;;;;;;;13.38;8.35;;;18.60;90.30;;;;;;5034914;28;20052;-88
2022/04/23 11:34:00;;;;;;;12.98;8.70;;;18.60;90.00;;;;;;5051458;28;20060;-89
2022/04/23 11:36:30;;;;;;;12.80;8.10;;;18.70;89.70;;;;;;5071794;28;20485;-88
2022/04/23 11:38:57;;;;;;;14.02;8.15;;;18.70;88.70;;;;;;5072358;28;20056;-88
2022/04/23 11:41:30;;;;;;;12.40;7.60;;;18.70;88.00;;;;;;5054502;28;20105;-88
2022/04/23 11:43:56;;;;;;;12.52;8.60;;;18.80;87.70;;;;;;5072392;28;20044;-89
2022/04/23 11:46:22;;;;;;;12.63;8.07;;;19.30;86.70;;;;;;5056371;28;20072;-89
2022/04/23 11:48:49;;;;;;;12.40;7.93;;;18.70;86.40;;;;;;5054384;28;20472;-88
2022/04/23 11:51:20;;;;;;;12.70;7.90;;;19.10;86.40;;;;;;5071749;28;20048;-88
2022/04/23 11:54:11;;;;;;;12.88;8.23;;;19.10;86.50;;;;;;5072087;28;20036;-88
2022/04/23 11:56:40;;;;;;;11.23;7.63;;;18.50;84.30;;;;;;5062597;28;20055;-88
2022/04/23 11:59:09;;;;;;;12.38;7.50;;;19.30;86.80;;;;;;5072449;28;20048;-88
2022/04/23 12:01:38;;;;;;;10.63;6.80;;;19.80;85.50;;;;;;5072893;28;20131;-88
2022/04/23 12:04:04;;;;;;;10.40;6.53;;;19.60;85.00;;;;;;5053650;28;20446;-89
2022/04/23 12:06:44;;;;;;;12.20;8.20;;;19.60;83.70;;;;;;5054343;28;20052;-88
2022/04/23 12:09:11;;;;;;;12.60;8.05;;;19.60;81.70;;;;;;5072625;28;20040;-89
2022/04/23 12:11:37;;;;;;;11.93;7.43;;;19.50;83.40;;;;;;5071514;28;20389;-88
2022/04/23 12:14:04;;;;;;;12.40;6.57;;;19.70;83.50;;;;;;5072128;28;20080;-89
2022/04/23 12:16:33;;;;;;;11.30;7.10;;;19.80;82.70;;;;;;5073021;28;20125;-88
2022/04/23 12:19:00;;;;;;;11.85;6.70;;;19.80;81.40;;;;;;5074793;28;20531;-87
2022/04/23 12:21:26;;;;;;;12.10;6.20;;;19.90;79.90;;;;;;5057921;28;20136;-87
2022/04/23 12:23:51;;;;;;;10.90;6.32;;;19.90;80.00;;;;;;5057497;28;20123;-88
2022/04/23 12:26:24;;;;;;;10.38;5.80;;;20.20;78.70;;;;;;5075057;28;20102;-88
2022/04/23 12:42:30;;;;;;;10.90;6.10;;;20.00;75.10;;;;;;5075869;28;20052;-88
2022/04/23 12:44:56;;;;;;;12.40;6.07;;;20.00;74.20;;;;;;5075155;28;20072;-88
2022/04/23 12:47:29;;;;;;;16.45;6.63;;;20.30;73.80;;;;;;5074782;28;20078;-88
2022/04/23 12:49:56;;;;;;;;;;;20.30;71.90;;;;;;5060455;28;20119;-88
2022/04/23 12:52:32;;;;;;;9.85;6.03;;;20.30;71.60;;;;;;5056714;28;20333;-88
2022/04/23 12:55:19;;;;;;;9.93;6.10;;;20.40;72.80;;;;;;5057198;28;20032;-88
2022/04/23 12:57:52;;;;;;;13.15;5.82;;;20.60;71.10;;;;;;5057537;28;20514;-88
2022/04/23 13:00:22;;;;;;;;;;;20.50;72.10;;;;;;5056739;28;20078;-88
2022/04/23 13:02:54;;;;;;;10.68;5.85;;;20.30;71.20;;;;;;5057390;28;19927;-89
2022/04/23 13:05:21;;;;;;;12.85;6.65;;;20.30;72.10;;;;;;5079450;28;20044;-88
2022/04/23 13:10:31;;;;;;;11.43;6.50;;;20.40;71.20;;;;;;5058537;28;20044;-88
2022/04/23 13:12:57;;;;;;;10.30;6.10;;;20.90;71.50;;;;;;5058913;28;20082;-88
2022/04/23 13:15:23;;;;;;;13.38;6.43;;;20.60;71.40;;;;;;5075223;28;20040;-88
2022/04/23 13:17:49;;;;;;;11.30;5.93;;;20.90;71.40;;;;;;5074565;28;20040;-88
2022/04/23 13:20:16;;;;;;;10.25;6.40;;;20.80;71.00;;;;;;5078605;28;20100;-87
2022/04/23 13:22:43;;;;;;;11.48;6.18;;;20.90;70.90;;;;;;5075955;28;20032;-88
2022/04/23 13:25:10;;;;;;;10.25;6.15;;;20.80;70.40;;;;;;5074653;28;20086;-88
2022/04/23 13:27:36;;;;;;;11.40;6.32;;;20.80;70.50;;;;;;5055819;28;20472;-88